sensor_id;sensor_type;location;lat;lon;timestamp;P1;durP1;ratioP1;P2;durP2;ratioP2
58681;SDS011;44460;40.162;18.294;2022-07-21T00:00:46;9.15;;;3.28;;
58681;SDS011;44460;40.162;18.294;2022-07-21T00:03:12;8.00;;;3.20;;
58681;SDS011;44460;40.162;18.294;2022-07-21T00:05:37;8.05;;;2.88;;
58681;SDS011;44460;40.162;18.294;2022-07-21T00:08:03;10.13;;;3.38;;
58681;SDS011;44460;40.162;18.294;2022-07-21T00:10:29;8.35;;;3.35;;
58681;SDS011;44460;40.162;18.294;2022-07-21T00:12:54;9.40;;;3.20;;
58681;SDS011;44460;40.162;18.294;2022-07-21T00:15:22;9.95;;;3.38;;
58681;SDS011;44460;40.162;18.294;2022-07-21T00:17:48;8.20;;;3.15;;
58681;SDS011;44460;40.162;18.294;2022-07-21T00:20:14;18.85;;;3.90;;
58681;SDS011;44460;40.162;18.294;2022-07-21T00:22:40;12.75;;;3.22;;
58681;SDS011;44460;40.162;18.294;2022-07-21T00:25:06;7.15;;;3.10;;
58681;SDS011;44460;40.162;18.294;2022-07-21T00:27:32;10.63;;;3.70;;
58681;SDS011;44460;40.162;18.294;2022-07-21T00:29:57;10.35;;;3.10;;
58681;SDS011;44460;40.162;18.294;2022-07-21T00:32:23;6.95;;;3.25;;
58681;SDS011;44460;40.162;18.294;2022-07-21T00:34:48;11.00;;;3.20;;
58681;SDS011;44460;40.162;18.294;2022-07-21T00:37:14;6.72;;;3.10;;
58681;SDS011;44460;40.162;18.294;2022-07-21T00:39:39;9.60;;;3.38;;
58681;SDS011;44460;40.162;18.294;2022-07-21T00:42:04;6.82;;;3.03;;
58681;SDS011;44460;40.162;18.294;2022-07-21T00:44:30;10.30;;;3.55;;
58681;SDS011;44460;40.162;18.294;2022-07-21T00:46:56;7.20;;;3.40;;
58681;SDS011;44460;40.162;18.294;2022-07-21T00:49:21;15.13;;;3.55;;
58681;SDS011;44460;40.162;18.294;2022-07-21T00:51:47;8.85;;;3.50;;
58681;SDS011;44460;40.162;18.294;2022-07-21T00:54:14;9.18;;;3.40;;
58681;SDS011;44460;40.162;18.294;2022-07-21T00:56:40;12.18;;;3.38;;
58681;SDS011;44460;40.162;18.294;2022-07-21T00:59:06;12.50;;;3.63;;
58681;SDS011;44460;40.162;18.294;2022-07-21T01:01:31;10.55;;;3.70;;
58681;SDS011;44460;40.162;18.294;2022-07-21T01:03:56;8.82;;;3.88;;
58681;SDS011;44460;40.162;18.294;2022-07-21T01:06:23;18.48;;;3.85;;
58681;SDS011;44460;40.162;18.294;2022-07-21T01:08:49;9.40;;;3.47;;
58681;SDS011;44460;40.162;18.294;2022-07-21T01:11:16;12.25;;;3.92;;
58681;SDS011;44460;40.162;18.294;2022-07-21T01:13:42;8.80;;;3.60;;
58681;SDS011;44460;40.162;18.294;2022-07-21T01:16:08;11.00;;;3.15;;
58681;SDS011;44460;40.162;18.294;2022-07-21T01:18:34;12.57;;;4.55;;
58681;SDS011;44460;40.162;18.294;2022-07-21T01:21:02;8.18;;;3.78;;
58681;SDS011;44460;40.162;18.294;2022-07-21T01:23:28;16.73;;;4.03;;
58681;SDS011;44460;40.162;18.294;2022-07-21T01:25:54;15.65;;;4.68;;
58681;SDS011;44460;40.162;18.294;2022-07-21T01:28:19;13.80;;;4.90;;
58681;SDS011;44460;40.162;18.294;2022-07-21T01:30:45;13.30;;;5.65;;
58681;SDS011;44460;40.162;18.294;2022-07-21T01:33:10;16.70;;;6.07;;
58681;SDS011;44460;40.162;18.294;2022-07-21T01:35:35;12.85;;;5.30;;
58681;SDS011;44460;40.162;18.294;2022-07-21T01:38:01;14.23;;;5.97;;
58681;SDS011;44460;40.162;18.294;2022-07-21T01:40:26;13.77;;;5.07;;
58681;SDS011;44460;40.162;18.294;2022-07-21T01:43:10;15.45;;;5.90;;
58681;SDS011;44460;40.162;18.294;2022-07-21T01:45:36;14.48;;;5.65;;
58681;SDS011;44460;40.162;18.294;2022-07-21T01:48:01;17.00;;;5.95;;
58681;SDS011;44460;40.162;18.294;2022-07-21T01:50:27;14.82;;;6.45;;
58681;SDS011;44460;40.162;18.294;2022-07-21T01:52:56;15.38;;;5.57;;
58681;SDS011;44460;40.162;18.294;2022-07-21T01:55:22;16.38;;;5.90;;
58681;SDS011;44460;40.162;18.294;2022-07-21T01:57:48;15.02;;;7.55;;
58681;SDS011;44460;40.162;18.294;2022-07-21T02:00:13;15.23;;;6.88;;
58681;SDS011;44460;40.162;18.294;2022-07-21T02:02:39;19.55;;;7.10;;
58681;SDS011;44460;40.162;18.294;2022-07-21T02:05:05;16.45;;;6.97;;
58681;SDS011;44460;40.162;18.294;2022-07-21T02:07:30;17.38;;;6.93;;
58681;SDS011;44460;40.162;18.294;2022-07-21T02:09:56;20.10;;;7.82;;
58681;SDS011;44460;40.162;18.294;2022-07-21T02:12:21;18.23;;;7.65;;
58681;SDS011;44460;40.162;18.294;2022-07-21T02:14:47;18.77;;;6.93;;
58681;SDS011;44460;40.162;18.294;2022-07-21T02:17:12;20.60;;;6.97;;
58681;SDS011;44460;40.162;18.294;2022-07-21T02:19:37;13.77;;;7.50;;
58681;SDS011;44460;40.162;18.294;2022-07-21T02:22:03;13.30;;;7.50;;
58681;SDS011;44460;40.162;18.294;2022-07-21T02:24:28;19.70;;;7.63;;
58681;SDS011;44460;40.162;18.294;2022-07-21T02:26:54;18.48;;;6.57;;
58681;SDS011;44460;40.162;18.294;2022-07-21T02:29:19;24.33;;;7.85;;
58681;SDS011;44460;40.162;18.294;2022-07-21T02:31:44;14.05;;;7.15;;
58681;SDS011;44460;40.162;18.294;2022-07-21T02:34:10;18.52;;;7.00;;
58681;SDS011;44460;40.162;18.294;2022-07-21T02:36:35;15.65;;;6.68;;
58681;SDS011;44460;40.162;18.294;2022-07-21T02:39:01;18.38;;;6.72;;
58681;SDS011;44460;40.162;18.294;2022-07-21T02:41:27;14.25;;;7.05;;
58681;SDS011;44460;40.162;18.294;2022-07-21T02:43:52;13.38;;;6.50;;
58681;SDS011;44460;40.162;18.294;2022-07-21T02:46:17;13.48;;;6.10;;
58681;SDS011;44460;40.162;18.294;2022-07-21T02:48:43;16.33;;;6.38;;
58681;SDS011;44460;40.162;18.294;2022-07-21T02:51:08;14.48;;;6.13;;
58681;SDS011;44460;40.162;18.294;2022-07-21T02:53:34;13.90;;;6.25;;
58681;SDS011;44460;40.162;18.294;2022-07-21T02:55:59;12.15;;;6.00;;
58681;SDS011;44460;40.162;18.294;2022-07-21T02:58:25;16.63;;;6.43;;
58681;SDS011;44460;40.162;18.294;2022-07-21T03:00:52;12.35;;;5.90;;
58681;SDS011;44460;40.162;18.294;2022-07-21T03:03:18;12.90;;;5.90;;
58681;SDS011;44460;40.162;18.294;2022-07-21T03:05:44;16.15;;;6.50;;
58681;SDS011;44460;40.162;18.294;2022-07-21T03:08:10;13.15;;;6.22;;
58681;SDS011;44460;40.162;18.294;2022-07-21T03:10:36;10.02;;;5.65;;
58681;SDS011;44460;40.162;18.294;2022-07-21T03:13:02;11.15;;;5.18;;
58681;SDS011;44460;40.162;18.294;2022-07-21T03:15:29;13.20;;;5.18;;
58681;SDS011;44460;40.162;18.294;2022-07-21T03:17:55;12.82;;;5.20;;
58681;SDS011;44460;40.162;18.294;2022-07-21T03:20:26;12.60;;;5.57;;
58681;SDS011;44460;40.162;18.294;2022-07-21T03:22:52;15.27;;;5.53;;
58681;SDS011;44460;40.162;18.294;2022-07-21T03:25:17;12.45;;;5.15;;
58681;SDS011;44460;40.162;18.294;2022-07-21T03:27:43;18.25;;;5.88;;
58681;SDS011;44460;40.162;18.294;2022-07-21T03:30:09;11.55;;;5.78;;
58681;SDS011;44460;40.162;18.294;2022-07-21T03:32:35;11.43;;;5.22;;
58681;SDS011;44460;40.162;18.294;2022-07-21T03:35:01;13.18;;;5.60;;
58681;SDS011;44460;40.162;18.294;2022-07-21T03:37:26;9.65;;;5.18;;
58681;SDS011;44460;40.162;18.294;2022-07-21T03:39:52;11.88;;;5.40;;
58681;SDS011;44460;40.162;18.294;2022-07-21T03:42:18;9.80;;;4.80;;
58681;SDS011;44460;40.162;18.294;2022-07-21T03:44:43;10.35;;;5.30;;
58681;SDS011;44460;40.162;18.294;2022-07-21T03:47:08;9.77;;;5.07;;
58681;SDS011;44460;40.162;18.294;2022-07-21T03:49:34;11.48;;;5.10;;
58681;SDS011;44460;40.162;18.294;2022-07-21T03:52:00;17.83;;;5.28;;
58681;SDS011;44460;40.162;18.294;2022-07-21T03:54:25;9.77;;;5.13;;
58681;SDS011;44460;40.162;18.294;2022-07-21T03:56:51;12.27;;;4.65;;
58681;SDS011;44460;40.162;18.294;2022-07-21T03:59:16;12.93;;;4.88;;
58681;SDS011;44460;40.162;18.294;2022-07-21T04:01:42;13.02;;;5.10;;
58681;SDS011;44460;40.162;18.294;2022-07-21T04:04:07;16.50;;;5.45;;
58681;SDS011;44460;40.162;18.294;2022-07-21T04:06:33;9.52;;;4.07;;
58681;SDS011;44460;40.162;18.294;2022-07-21T04:08:58;12.13;;;4.63;;
58681;SDS011;44460;40.162;18.294;2022-07-21T04:11:24;10.80;;;4.57;;
58681;SDS011;44460;40.162;18.294;2022-07-21T04:13:49;13.20;;;4.78;;
58681;SDS011;44460;40.162;18.294;2022-07-21T04:16:14;11.35;;;4.60;;
58681;SDS011;44460;40.162;18.294;2022-07-21T04:18:40;13.20;;;5.03;;
58681;SDS011;44460;40.162;18.294;2022-07-21T04:21:05;12.70;;;4.50;;
58681;SDS011;44460;40.162;18.294;2022-07-21T04:23:31;11.13;;;4.30;;
58681;SDS011;44460;40.162;18.294;2022-07-21T04:25:56;9.85;;;3.65;;
58681;SDS011;44460;40.162;18.294;2022-07-21T04:28:22;9.10;;;4.10;;
58681;SDS011;44460;40.162;18.294;2022-07-21T04:30:47;15.98;;;4.60;;
58681;SDS011;44460;40.162;18.294;2022-07-21T04:33:13;11.07;;;4.35;;
58681;SDS011;44460;40.162;18.294;2022-07-21T04:35:38;17.83;;;5.05;;
58681;SDS011;44460;40.162;18.294;2022-07-21T04:38:04;17.40;;;4.80;;
58681;SDS011;44460;40.162;18.294;2022-07-21T04:40:29;13.05;;;4.65;;
58681;SDS011;44460;40.162;18.294;2022-07-21T04:42:54;25.85;;;5.53;;
58681;SDS011;44460;40.162;18.294;2022-07-21T04:45:20;22.90;;;5.45;;
58681;SDS011;44460;40.162;18.294;2022-07-21T04:47:47;17.90;;;5.20;;
58681;SDS011;44460;40.162;18.294;2022-07-21T04:50:13;12.40;;;4.65;;
58681;SDS011;44460;40.162;18.294;2022-07-21T04:52:38;15.27;;;7.53;;
58681;SDS011;44460;40.162;18.294;2022-07-21T04:55:04;21.58;;;11.95;;
58681;SDS011;44460;40.162;18.294;2022-07-21T04:57:29;29.13;;;15.10;;
58681;SDS011;44460;40.162;18.294;2022-07-21T04:59:55;24.00;;;14.32;;
58681;SDS011;44460;40.162;18.294;2022-07-21T05:02:20;20.92;;;12.25;;
58681;SDS011;44460;40.162;18.294;2022-07-21T05:04:46;24.40;;;12.55;;
58681;SDS011;44460;40.162;18.294;2022-07-21T05:07:11;17.45;;;10.52;;
58681;SDS011;44460;40.162;18.294;2022-07-21T05:09:36;18.40;;;8.88;;
58681;SDS011;44460;40.162;18.294;2022-07-21T05:12:02;29.60;;;9.05;;
58681;SDS011;44460;40.162;18.294;2022-07-21T05:14:28;22.10;;;8.05;;
58681;SDS011;44460;40.162;18.294;2022-07-21T05:16:53;24.27;;;10.05;;
58681;SDS011;44460;40.162;18.294;2022-07-21T05:19:18;28.92;;;14.05;;
58681;SDS011;44460;40.162;18.294;2022-07-21T05:21:44;23.38;;;12.90;;
58681;SDS011;44460;40.162;18.294;2022-07-21T05:24:10;25.33;;;14.32;;
58681;SDS011;44460;40.162;18.294;2022-07-21T05:26:36;24.70;;;11.75;;
58681;SDS011;44460;40.162;18.294;2022-07-21T05:29:01;21.98;;;11.88;;
58681;SDS011;44460;40.162;18.294;2022-07-21T05:31:26;24.00;;;10.82;;
58681;SDS011;44460;40.162;18.294;2022-07-21T05:33:52;22.40;;;9.90;;
58681;SDS011;44460;40.162;18.294;2022-07-21T05:36:17;18.75;;;8.48;;
58681;SDS011;44460;40.162;18.294;2022-07-21T05:38:43;14.85;;;6.25;;
58681;SDS011;44460;40.162;18.294;2022-07-21T05:41:09;16.45;;;6.03;;
58681;SDS011;44460;40.162;18.294;2022-07-21T05:43:34;15.55;;;5.03;;
58681;SDS011;44460;40.162;18.294;2022-07-21T05:45:59;16.70;;;5.22;;
58681;SDS011;44460;40.162;18.294;2022-07-21T05:48:25;13.55;;;4.70;;
58681;SDS011;44460;40.162;18.294;2022-07-21T05:50:50;17.45;;;4.28;;
58681;SDS011;44460;40.162;18.294;2022-07-21T05:53:16;13.30;;;3.75;;
58681;SDS011;44460;40.162;18.294;2022-07-21T05:55:41;13.98;;;3.45;;
58681;SDS011;44460;40.162;18.294;2022-07-21T05:58:07;12.77;;;3.17;;
58681;SDS011;44460;40.162;18.294;2022-07-21T06:00:32;10.70;;;3.38;;
58681;SDS011;44460;40.162;18.294;2022-07-21T06:02:57;9.43;;;3.40;;
58681;SDS011;44460;40.162;18.294;2022-07-21T06:05:23;9.32;;;3.47;;
58681;SDS011;44460;40.162;18.294;2022-07-21T06:07:48;10.48;;;3.00;;
58681;SDS011;44460;40.162;18.294;2022-07-21T06:10:14;9.93;;;3.30;;
58681;SDS011;44460;40.162;18.294;2022-07-21T06:12:39;7.25;;;3.67;;
58681;SDS011;44460;40.162;18.294;2022-07-21T06:15:05;5.72;;;2.67;;
58681;SDS011;44460;40.162;18.294;2022-07-21T06:19:59;11.32;;;3.20;;
58681;SDS011;44460;40.162;18.294;2022-07-21T06:22:24;15.75;;;3.17;;
58681;SDS011;44460;40.162;18.294;2022-07-21T06:24:50;10.27;;;3.10;;
58681;SDS011;44460;40.162;18.294;2022-07-21T06:27:15;9.32;;;3.60;;
58681;SDS011;44460;40.162;18.294;2022-07-21T06:29:41;9.65;;;3.10;;
58681;SDS011;44460;40.162;18.294;2022-07-21T06:32:06;9.57;;;3.08;;
58681;SDS011;44460;40.162;18.294;2022-07-21T06:34:31;10.40;;;3.00;;
58681;SDS011;44460;40.162;18.294;2022-07-21T06:36:57;5.25;;;2.90;;
58681;SDS011;44460;40.162;18.294;2022-07-21T06:39:22;17.70;;;3.65;;
58681;SDS011;44460;40.162;18.294;2022-07-21T06:41:48;12.77;;;3.50;;
58681;SDS011;44460;40.162;18.294;2022-07-21T06:44:13;9.38;;;2.90;;
58681;SDS011;44460;40.162;18.294;2022-07-21T06:46:39;6.80;;;3.13;;
58681;SDS011;44460;40.162;18.294;2022-07-21T06:49:04;14.40;;;3.72;;
58681;SDS011;44460;40.162;18.294;2022-07-21T06:51:30;15.05;;;3.55;;
58681;SDS011;44460;40.162;18.294;2022-07-21T06:53:55;7.20;;;3.45;;
58681;SDS011;44460;40.162;18.294;2022-07-21T06:56:21;9.38;;;2.85;;
58681;SDS011;44460;40.162;18.294;2022-07-21T06:58:47;8.73;;;3.45;;
58681;SDS011;44460;40.162;18.294;2022-07-21T07:01:12;27.30;;;4.68;;
58681;SDS011;44460;40.162;18.294;2022-07-21T07:03:40;11.63;;;3.47;;
58681;SDS011;44460;40.162;18.294;2022-07-21T07:06:05;16.75;;;3.58;;
58681;SDS011;44460;40.162;18.294;2022-07-21T07:08:32;7.40;;;3.10;;
58681;SDS011;44460;40.162;18.294;2022-07-21T07:10:57;6.97;;;3.00;;
58681;SDS011;44460;40.162;18.294;2022-07-21T07:13:23;17.20;;;5.03;;
58681;SDS011;44460;40.162;18.294;2022-07-21T07:15:48;65.35;;;8.20;;
58681;SDS011;44460;40.162;18.294;2022-07-21T07:18:14;12.75;;;3.45;;
58681;SDS011;44460;40.162;18.294;2022-07-21T07:20:39;6.63;;;3.03;;
58681;SDS011;44460;40.162;18.294;2022-07-21T07:23:05;13.02;;;3.03;;
58681;SDS011;44460;40.162;18.294;2022-07-21T07:25:30;9.77;;;3.55;;
58681;SDS011;44460;40.162;18.294;2022-07-21T07:27:56;15.80;;;4.72;;
58681;SDS011;44460;40.162;18.294;2022-07-21T07:30:22;9.13;;;4.38;;
58681;SDS011;44460;40.162;18.294;2022-07-21T07:32:48;8.77;;;3.28;;
58681;SDS011;44460;40.162;18.294;2022-07-21T07:35:13;7.35;;;3.08;;
58681;SDS011;44460;40.162;18.294;2022-07-21T07:37:40;9.20;;;3.17;;
58681;SDS011;44460;40.162;18.294;2022-07-21T07:40:07;10.40;;;3.60;;
58681;SDS011;44460;40.162;18.294;2022-07-21T07:44:58;14.63;;;4.30;;
58681;SDS011;44460;40.162;18.294;2022-07-21T07:47:26;8.15;;;3.28;;
58681;SDS011;44460;40.162;18.294;2022-07-21T07:49:52;9.75;;;3.50;;
58681;SDS011;44460;40.162;18.294;2022-07-21T07:52:19;6.97;;;3.13;;
58681;SDS011;44460;40.162;18.294;2022-07-21T07:54:45;7.68;;;3.50;;
58681;SDS011;44460;40.162;18.294;2022-07-21T07:57:10;7.28;;;3.20;;
58681;SDS011;44460;40.162;18.294;2022-07-21T07:59:36;9.13;;;3.65;;
58681;SDS011;44460;40.162;18.294;2022-07-21T08:02:01;9.98;;;3.50;;
58681;SDS011;44460;40.162;18.294;2022-07-21T08:04:27;12.60;;;3.17;;
58681;SDS011;44460;40.162;18.294;2022-07-21T08:06:52;9.75;;;3.28;;
58681;SDS011;44460;40.162;18.294;2022-07-21T08:09:18;7.93;;;2.87;;
58681;SDS011;44460;40.162;18.294;2022-07-21T08:11:44;6.60;;;3.10;;
58681;SDS011;44460;40.162;18.294;2022-07-21T08:14:12;7.57;;;3.25;;
58681;SDS011;44460;40.162;18.294;2022-07-21T08:16:38;11.57;;;3.67;;
58681;SDS011;44460;40.162;18.294;2022-07-21T08:19:03;10.02;;;3.38;;
58681;SDS011;44460;40.162;18.294;2022-07-21T08:21:29;9.93;;;3.13;;
58681;SDS011;44460;40.162;18.294;2022-07-21T08:23:56;14.02;;;3.55;;
58681;SDS011;44460;40.162;18.294;2022-07-21T08:26:23;16.15;;;3.28;;
58681;SDS011;44460;40.162;18.294;2022-07-21T08:28:48;12.23;;;3.00;;
58681;SDS011;44460;40.162;18.294;2022-07-21T08:31:13;13.30;;;3.10;;
58681;SDS011;44460;40.162;18.294;2022-07-21T08:33:39;15.20;;;4.83;;
58681;SDS011;44460;40.162;18.294;2022-07-21T08:36:04;23.13;;;6.87;;
58681;SDS011;44460;40.162;18.294;2022-07-21T08:38:30;12.40;;;7.40;;
58681;SDS011;44460;40.162;18.294;2022-07-21T08:40:55;49.28;;;30.42;;
58681;SDS011;44460;40.162;18.294;2022-07-21T08:43:22;38.47;;;19.35;;
58681;SDS011;44460;40.162;18.294;2022-07-21T08:48:14;6.50;;;3.33;;
58681;SDS011;44460;40.162;18.294;2022-07-21T08:50:46;7.10;;;3.25;;
58681;SDS011;44460;40.162;18.294;2022-07-21T08:53:12;15.70;;;4.17;;
58681;SDS011;44460;40.162;18.294;2022-07-21T08:55:38;15.38;;;3.80;;
58681;SDS011;44460;40.162;18.294;2022-07-21T08:58:06;31.30;;;4.47;;
58681;SDS011;44460;40.162;18.294;2022-07-21T09:00:32;12.55;;;3.65;;
58681;SDS011;44460;40.162;18.294;2022-07-21T09:03:16;16.17;;;3.40;;
58681;SDS011;44460;40.162;18.294;2022-07-21T09:05:42;12.25;;;2.97;;
58681;SDS011;44460;40.162;18.294;2022-07-21T09:08:08;10.02;;;3.42;;
58681;SDS011;44460;40.162;18.294;2022-07-21T09:10:34;13.07;;;2.70;;
58681;SDS011;44460;40.162;18.294;2022-07-21T09:13:01;11.93;;;2.93;;
58681;SDS011;44460;40.162;18.294;2022-07-21T09:15:27;8.27;;;3.35;;
58681;SDS011;44460;40.162;18.294;2022-07-21T09:20:49;6.43;;;3.03;;
58681;SDS011;44460;40.162;18.294;2022-07-21T09:23:15;7.80;;;3.00;;
58681;SDS011;44460;40.162;18.294;2022-07-21T09:28:10;15.30;;;3.50;;
58681;SDS011;44460;40.162;18.294;2022-07-21T09:38:26;7.07;;;2.73;;
58681;SDS011;44460;40.162;18.294;2022-07-21T09:40:52;7.57;;;2.80;;
58681;SDS011;44460;40.162;18.294;2022-07-21T09:43:30;6.47;;;2.73;;
58681;SDS011;44460;40.162;18.294;2022-07-21T09:45:55;9.75;;;2.88;;
58681;SDS011;44460;40.162;18.294;2022-07-21T09:48:34;6.53;;;3.13;;
58681;SDS011;44460;40.162;18.294;2022-07-21T09:51:19;8.48;;;2.88;;
58681;SDS011;44460;40.162;18.294;2022-07-21T09:53:52;9.40;;;2.65;;
58681;SDS011;44460;40.162;18.294;2022-07-21T09:56:18;5.75;;;2.50;;
58681;SDS011;44460;40.162;18.294;2022-07-21T09:58:45;7.05;;;3.00;;
58681;SDS011;44460;40.162;18.294;2022-07-21T10:01:11;7.43;;;2.60;;
58681;SDS011;44460;40.162;18.294;2022-07-21T10:03:36;5.23;;;2.60;;
58681;SDS011;44460;40.162;18.294;2022-07-21T10:06:02;8.13;;;2.90;;
58681;SDS011;44460;40.162;18.294;2022-07-21T10:08:28;5.97;;;2.83;;
58681;SDS011;44460;40.162;18.294;2022-07-21T10:10:53;11.40;;;2.93;;
58681;SDS011;44460;40.162;18.294;2022-07-21T10:13:19;4.67;;;2.30;;
58681;SDS011;44460;40.162;18.294;2022-07-21T10:15:46;5.60;;;2.50;;
58681;SDS011;44460;40.162;18.294;2022-07-21T10:20:37;6.00;;;2.67;;
58681;SDS011;44460;40.162;18.294;2022-07-21T10:25:40;7.10;;;2.53;;
58681;SDS011;44460;40.162;18.294;2022-07-21T10:30:38;5.07;;;2.73;;
58681;SDS011;44460;40.162;18.294;2022-07-21T10:33:04;5.35;;;2.35;;
58681;SDS011;44460;40.162;18.294;2022-07-21T10:35:29;11.93;;;2.60;;
58681;SDS011;44460;40.162;18.294;2022-07-21T10:37:55;7.03;;;2.70;;
58681;SDS011;44460;40.162;18.294;2022-07-21T10:47:49;7.43;;;3.70;;
58681;SDS011;44460;40.162;18.294;2022-07-21T10:50:14;8.20;;;2.97;;
58681;SDS011;44460;40.162;18.294;2022-07-21T10:55:20;8.63;;;3.13;;
58681;SDS011;44460;40.162;18.294;2022-07-21T11:00:37;8.10;;;3.45;;
58681;SDS011;44460;40.162;18.294;2022-07-21T11:03:06;7.07;;;3.42;;
58681;SDS011;44460;40.162;18.294;2022-07-21T11:05:37;8.88;;;3.17;;
58681;SDS011;44460;40.162;18.294;2022-07-21T11:08:23;9.13;;;3.13;;
58681;SDS011;44460;40.162;18.294;2022-07-21T11:11:00;7.97;;;3.60;;
58681;SDS011;44460;40.162;18.294;2022-07-21T11:13:31;8.68;;;3.70;;
58681;SDS011;44460;40.162;18.294;2022-07-21T11:16:16;12.40;;;3.53;;
58681;SDS011;44460;40.162;18.294;2022-07-21T11:18:42;12.37;;;3.83;;
58681;SDS011;44460;40.162;18.294;2022-07-21T11:21:15;6.85;;;3.40;;
58681;SDS011;44460;40.162;18.294;2022-07-21T11:26:07;11.70;;;3.43;;
58681;SDS011;44460;40.162;18.294;2022-07-21T11:28:32;7.03;;;3.53;;
58681;SDS011;44460;40.162;18.294;2022-07-21T11:33:39;14.00;;;4.53;;
58681;SDS011;44460;40.162;18.294;2022-07-21T11:36:05;9.02;;;4.28;;
58681;SDS011;44460;40.162;18.294;2022-07-21T11:38:31;16.27;;;4.17;;
58681;SDS011;44460;40.162;18.294;2022-07-21T11:43:44;11.05;;;4.40;;
58681;SDS011;44460;40.162;18.294;2022-07-21T11:46:10;7.43;;;3.80;;
58681;SDS011;44460;40.162;18.294;2022-07-21T11:48:35;7.73;;;3.83;;
58681;SDS011;44460;40.162;18.294;2022-07-21T11:51:01;9.40;;;3.97;;
58681;SDS011;44460;40.162;18.294;2022-07-21T11:53:28;7.95;;;3.55;;
58681;SDS011;44460;40.162;18.294;2022-07-21T11:55:53;11.27;;;3.17;;
58681;SDS011;44460;40.162;18.294;2022-07-21T11:58:21;8.60;;;3.83;;
58681;SDS011;44460;40.162;18.294;2022-07-21T12:00:47;17.93;;;4.70;;
58681;SDS011;44460;40.162;18.294;2022-07-21T12:03:13;8.63;;;3.10;;
58681;SDS011;44460;40.162;18.294;2022-07-21T12:05:39;10.60;;;3.50;;
58681;SDS011;44460;40.162;18.294;2022-07-21T12:08:05;13.20;;;3.50;;
58681;SDS011;44460;40.162;18.294;2022-07-21T12:10:31;7.97;;;3.57;;
58681;SDS011;44460;40.162;18.294;2022-07-21T12:13:00;7.50;;;2.70;;
58681;SDS011;44460;40.162;18.294;2022-07-21T12:15:27;6.07;;;2.83;;
58681;SDS011;44460;40.162;18.294;2022-07-21T12:18:06;5.55;;;2.58;;
58681;SDS011;44460;40.162;18.294;2022-07-21T12:20:32;8.93;;;2.88;;
58681;SDS011;44460;40.162;18.294;2022-07-21T12:22:59;4.25;;;2.28;;
58681;SDS011;44460;40.162;18.294;2022-07-21T12:25:31;9.48;;;2.55;;
58681;SDS011;44460;40.162;18.294;2022-07-21T12:27:58;8.57;;;2.58;;
58681;SDS011;44460;40.162;18.294;2022-07-21T12:30:37;10.90;;;2.63;;
58681;SDS011;44460;40.162;18.294;2022-07-21T12:33:07;7.93;;;2.28;;
58681;SDS011;44460;40.162;18.294;2022-07-21T12:35:34;7.45;;;2.17;;
58681;SDS011;44460;40.162;18.294;2022-07-21T12:40:25;5.37;;;2.30;;
58681;SDS011;44460;40.162;18.294;2022-07-21T12:43:02;9.75;;;2.42;;
58681;SDS011;44460;40.162;18.294;2022-07-21T12:45:27;5.53;;;2.45;;
58681;SDS011;44460;40.162;18.294;2022-07-21T12:48:09;8.27;;;2.40;;
58681;SDS011;44460;40.162;18.294;2022-07-21T12:50:35;6.63;;;2.40;;
58681;SDS011;44460;40.162;18.294;2022-07-21T12:53:04;4.43;;;2.15;;
58681;SDS011;44460;40.162;18.294;2022-07-21T12:55:29;5.47;;;2.43;;
58681;SDS011;44460;40.162;18.294;2022-07-21T12:57:55;5.03;;;2.50;;
58681;SDS011;44460;40.162;18.294;2022-07-21T13:00:20;6.33;;;2.30;;
58681;SDS011;44460;40.162;18.294;2022-07-21T13:02:51;6.37;;;2.20;;
58681;SDS011;44460;40.162;18.294;2022-07-21T13:05:17;7.03;;;2.08;;
58681;SDS011;44460;40.162;18.294;2022-07-21T13:07:43;4.70;;;2.05;;
58681;SDS011;44460;40.162;18.294;2022-07-21T13:10:09;6.18;;;2.25;;
58681;SDS011;44460;40.162;18.294;2022-07-21T13:12:34;8.07;;;2.33;;
58681;SDS011;44460;40.162;18.294;2022-07-21T13:14:59;8.05;;;2.40;;
58681;SDS011;44460;40.162;18.294;2022-07-21T13:17:25;11.00;;;2.57;;
58681;SDS011;44460;40.162;18.294;2022-07-21T13:19:50;8.80;;;2.40;;
58681;SDS011;44460;40.162;18.294;2022-07-21T13:22:16;5.23;;;2.27;;
58681;SDS011;44460;40.162;18.294;2022-07-21T13:24:41;5.20;;;2.20;;
58681;SDS011;44460;40.162;18.294;2022-07-21T13:27:07;5.47;;;2.17;;
58681;SDS011;44460;40.162;18.294;2022-07-21T13:29:33;4.20;;;2.10;;
58681;SDS011;44460;40.162;18.294;2022-07-21T13:31:58;6.63;;;2.10;;
58681;SDS011;44460;40.162;18.294;2022-07-21T13:34:23;7.47;;;2.53;;
58681;SDS011;44460;40.162;18.294;2022-07-21T13:36:49;8.50;;;2.45;;
58681;SDS011;44460;40.162;18.294;2022-07-21T13:39:15;5.65;;;2.42;;
58681;SDS011;44460;40.162;18.294;2022-07-21T13:41:41;7.45;;;2.40;;
58681;SDS011;44460;40.162;18.294;2022-07-21T13:44:07;6.13;;;2.10;;
58681;SDS011;44460;40.162;18.294;2022-07-21T13:46:33;7.18;;;2.20;;
58681;SDS011;44460;40.162;18.294;2022-07-21T13:48:58;7.43;;;2.80;;
58681;SDS011;44460;40.162;18.294;2022-07-21T13:51:24;7.27;;;2.23;;
58681;SDS011;44460;40.162;18.294;2022-07-21T13:53:50;4.30;;;2.20;;
58681;SDS011;44460;40.162;18.294;2022-07-21T13:56:16;9.15;;;2.17;;
58681;SDS011;44460;40.162;18.294;2022-07-21T13:58:42;6.82;;;2.30;;
58681;SDS011;44460;40.162;18.294;2022-07-21T14:01:08;5.95;;;2.10;;
58681;SDS011;44460;40.162;18.294;2022-07-21T14:03:34;5.45;;;2.08;;
58681;SDS011;44460;40.162;18.294;2022-07-21T14:06:00;5.73;;;2.70;;
58681;SDS011;44460;40.162;18.294;2022-07-21T14:08:25;6.13;;;2.50;;
58681;SDS011;44460;40.162;18.294;2022-07-21T14:10:51;7.00;;;2.30;;
58681;SDS011;44460;40.162;18.294;2022-07-21T14:13:16;5.37;;;2.23;;
58681;SDS011;44460;40.162;18.294;2022-07-21T14:15:42;4.80;;;1.98;;
58681;SDS011;44460;40.162;18.294;2022-07-21T14:18:07;7.13;;;2.30;;
58681;SDS011;44460;40.162;18.294;2022-07-21T14:20:33;10.85;;;2.55;;
58681;SDS011;44460;40.162;18.294;2022-07-21T14:22:58;4.53;;;2.25;;
58681;SDS011;44460;40.162;18.294;2022-07-21T14:25:24;7.30;;;2.72;;
58681;SDS011;44460;40.162;18.294;2022-07-21T14:27:50;8.68;;;2.28;;
58681;SDS011;44460;40.162;18.294;2022-07-21T14:30:16;4.70;;;2.17;;
58681;SDS011;44460;40.162;18.294;2022-07-21T14:32:42;6.63;;;2.33;;
58681;SDS011;44460;40.162;18.294;2022-07-21T14:35:08;6.43;;;2.17;;
58681;SDS011;44460;40.162;18.294;2022-07-21T14:37:35;8.68;;;2.67;;
58681;SDS011;44460;40.162;18.294;2022-07-21T14:40:00;5.57;;;2.42;;
58681;SDS011;44460;40.162;18.294;2022-07-21T14:42:26;5.45;;;2.33;;
58681;SDS011;44460;40.162;18.294;2022-07-21T14:44:51;4.40;;;2.00;;
58681;SDS011;44460;40.162;18.294;2022-07-21T14:47:17;5.35;;;2.47;;
58681;SDS011;44460;40.162;18.294;2022-07-21T14:49:42;7.60;;;2.10;;
58681;SDS011;44460;40.162;18.294;2022-07-21T14:52:08;3.60;;;2.10;;
58681;SDS011;44460;40.162;18.294;2022-07-21T14:54:34;4.93;;;2.00;;
58681;SDS011;44460;40.162;18.294;2022-07-21T14:57:00;6.00;;;2.47;;
58681;SDS011;44460;40.162;18.294;2022-07-21T14:59:25;7.43;;;2.60;;
58681;SDS011;44460;40.162;18.294;2022-07-21T15:01:51;7.03;;;2.03;;
58681;SDS011;44460;40.162;18.294;2022-07-21T15:04:16;4.53;;;1.88;;
58681;SDS011;44460;40.162;18.294;2022-07-21T15:06:43;7.00;;;2.20;;
58681;SDS011;44460;40.162;18.294;2022-07-21T15:11:36;4.33;;;2.30;;
58681;SDS011;44460;40.162;18.294;2022-07-21T15:14:01;5.65;;;2.25;;
58681;SDS011;44460;40.162;18.294;2022-07-21T15:16:26;6.38;;;2.45;;